createdAt,value
2018-11-10T00:01:12.160Z,32.50
2018-11-10T00:06:15.774Z,33.77
2018-11-10T00:11:19.234Z,33.70
2018-11-10T00:16:22.924Z,29.13
2018-11-10T00:21:26.734Z,37.00
2018-11-10T00:26:30.275Z,36.73
2018-11-10T00:31:34.087Z,41.30
2018-11-10T00:36:37.728Z,34.97
2018-11-10T00:41:41.227Z,40.37
2018-11-10T00:46:44.909Z,45.17
2018-11-10T00:51:48.467Z,45.17
2018-11-10T00:56:52.101Z,47.67
2018-11-10T01:01:55.918Z,44.47
2018-11-10T01:06:59.530Z,47.50
2018-11-10T01:12:03.596Z,47.90
2018-11-10T01:17:07.242Z,53.57
2018-11-10T01:22:10.853Z,51.87
2018-11-10T01:27:18.501Z,47.87
2018-11-10T01:32:22.153Z,47.67
2018-11-10T01:37:25.807Z,49.13
2018-11-10T01:42:29.431Z,56.33
2018-11-10T01:47:33.547Z,47.60
2018-11-10T01:52:37.176Z,46.27
2018-11-10T01:57:41.630Z,44.73
2018-11-10T02:02:46.007Z,49.00
2018-11-10T02:07:50.175Z,46.93
2018-11-10T02:12:53.722Z,40.67
2018-11-10T02:17:57.336Z,37.17
2018-11-10T02:23:01.057Z,41.03
2018-11-10T02:28:04.703Z,37.87
2018-11-10T02:33:09.715Z,39.33
2018-11-10T02:38:13.329Z,42.17
2018-11-10T02:43:16.864Z,34.93
2018-11-10T02:48:20.417Z,34.73
2018-11-10T02:53:24.141Z,37.17
2018-11-10T02:58:27.644Z,35.53
2018-11-10T03:03:31.299Z,34.00
2018-11-10T03:08:34.801Z,34.40
2018-11-10T03:13:38.342Z,33.47
2018-11-10T03:18:41.877Z,34.77
2018-11-10T03:23:45.589Z,36.77
2018-11-10T03:28:49.138Z,35.67
2018-11-10T03:33:53.001Z,32.87
2018-11-10T03:38:56.869Z,32.13
2018-11-10T03:44:00.425Z,25.33
2018-11-10T03:49:04.127Z,30.80
2018-11-10T03:54:08.023Z,27.33
2018-11-10T03:59:11.808Z,31.90
2018-11-10T04:04:16.386Z,25.23
2018-11-10T04:09:20.014Z,25.67
2018-11-10T04:14:23.774Z,25.63
2018-11-10T04:19:27.296Z,24.77
2018-11-10T04:24:30.950Z,19.70
2018-11-10T04:29:34.486Z,18.67
2018-11-10T04:34:38.286Z,20.97
2018-11-10T04:39:41.851Z,13.90
2018-11-10T04:44:45.589Z,18.53
2018-11-10T04:49:49.132Z,20.23
2018-11-10T04:54:52.880Z,15.80
2018-11-10T04:59:56.505Z,14.60
2018-11-10T05:05:00.346Z,13.73
2018-11-10T05:10:08.125Z,16.83
2018-11-10T05:15:13.115Z,12.30
2018-11-10T05:20:16.683Z,13.67
2018-11-10T05:25:20.623Z,12.13
2018-11-10T05:30:26.642Z,14.50
2018-11-10T05:35:30.304Z,16.20
2018-11-10T05:40:33.963Z,16.43
2018-11-10T05:45:37.591Z,19.33
2018-11-10T05:50:41.074Z,17.80
2018-11-10T05:55:44.643Z,18.60
2018-11-10T06:00:48.257Z,16.90
2018-11-10T06:05:51.889Z,15.97
2018-11-10T06:10:55.512Z,17.63
2018-11-10T06:15:59.129Z,18.83
2018-11-10T06:21:02.727Z,22.43
2018-11-10T06:26:06.630Z,17.97
2018-11-10T06:31:10.155Z,18.80
2018-11-10T06:36:15.490Z,18.57
2018-11-10T06:41:19.185Z,15.17
2018-11-10T06:46:22.733Z,10.77
2018-11-10T06:51:26.260Z,10.93
2018-11-10T06:56:30.140Z,9.00
2018-11-10T07:01:33.805Z,7.43
2018-11-10T07:06:37.424Z,5.47
2018-11-10T07:11:41.720Z,6.63
2018-11-10T07:16:45.424Z,6.50
2018-11-10T07:21:48.930Z,5.97
2018-11-10T07:26:52.521Z,6.10
2018-11-10T07:31:56.225Z,5.87
2018-11-10T07:37:00.005Z,6.53
2018-11-10T07:42:03.575Z,5.47
2018-11-10T07:47:07.451Z,7.57
2018-11-10T07:52:10.938Z,12.17
2018-11-10T07:57:14.622Z,10.23
2018-11-10T08:02:18.206Z,9.15
2018-11-10T08:07:21.857Z,8.97
2018-11-10T08:12:25.487Z,8.60
2018-11-10T08:17:37.277Z,9.07
2018-11-10T08:22:40.942Z,9.73
2018-11-10T08:27:44.575Z,9.03
2018-11-10T08:32:48.466Z,12.67
2018-11-10T08:37:52.098Z,12.33
2018-11-10T08:42:55.717Z,11.27
2018-11-10T08:47:59.687Z,14.97
2018-11-10T08:53:03.239Z,14.93
2018-11-10T08:58:06.837Z,13.30
2018-11-10T09:03:10.465Z,15.87
2018-11-10T09:08:14.083Z,17.63
2018-11-10T09:13:17.659Z,15.10
2018-11-10T09:18:21.213Z,13.30
2018-11-10T09:23:25.401Z,12.63
2018-11-10T09:28:28.946Z,15.80
2018-11-10T09:33:32.679Z,10.87
2018-11-10T09:38:36.658Z,14.77
2018-11-10T09:43:40.287Z,27.27
2018-11-10T09:48:43.770Z,39.83
2018-11-10T09:53:49.369Z,16.53
2018-11-10T09:58:54.758Z,82.57
2018-11-10T10:03:58.609Z,17.70
2018-11-10T10:09:02.319Z,33.93
2018-11-10T10:14:06.705Z,18.57
2018-11-10T10:19:10.938Z,22.20
2018-11-10T10:24:16.956Z,24.93
2018-11-10T10:29:20.529Z,13.87
2018-11-10T10:34:24.241Z,15.33
2018-11-10T10:39:27.695Z,28.53
2018-11-10T10:44:31.340Z,47.17
2018-11-10T10:49:35.090Z,11.63
2018-11-10T10:54:39.834Z,9.77
2018-11-10T10:59:43.326Z,85.23
2018-11-10T11:04:52.281Z,72.13
2018-11-10T11:09:55.823Z,15.37
2018-11-10T11:14:59.415Z,25.67
2018-11-10T11:20:03.254Z,31.67
2018-11-10T11:25:06.887Z,30.47
2018-11-10T11:30:11.656Z,20.87
2018-11-10T11:35:15.349Z,29.80
2018-11-10T11:40:18.918Z,18.17
2018-11-10T11:45:22.474Z,10.53
2018-11-10T11:50:26.019Z,9.87
2018-11-10T11:55:29.677Z,11.00
2018-11-10T12:00:35.291Z,16.33
2018-11-10T12:05:38.830Z,10.03
2018-11-10T12:10:42.335Z,8.77
2018-11-10T12:15:45.995Z,18.50
2018-11-10T12:20:49.580Z,20.63
2018-11-10T12:25:53.255Z,11.13
2018-11-10T12:30:56.905Z,11.57
2018-11-10T12:36:00.539Z,8.97
2018-11-10T12:41:04.305Z,9.47
2018-11-10T12:46:08.018Z,12.53
2018-11-10T12:51:11.539Z,8.80
2018-11-10T12:56:15.173Z,7.77
2018-11-10T13:01:18.708Z,18.63
2018-11-10T13:06:22.362Z,13.93
2018-11-10T13:11:26.051Z,8.30
2018-11-10T13:16:29.583Z,8.70
2018-11-10T13:21:33.212Z,10.40
2018-11-10T13:26:36.886Z,9.93
2018-11-10T13:31:47.651Z,14.37
2018-11-10T13:36:51.307Z,8.03
2018-11-10T13:41:54.942Z,11.43
2018-11-10T13:46:58.790Z,11.00
2018-11-10T13:52:02.643Z,14.40
2018-11-10T13:57:06.430Z,10.50
2018-11-10T14:02:09.990Z,10.50
2018-11-10T14:07:14.692Z,7.37
2018-11-10T14:12:18.284Z,10.87
2018-11-10T14:17:21.837Z,7.27
2018-11-10T14:22:25.494Z,7.77
2018-11-10T14:27:29.102Z,8.13
2018-11-10T14:32:32.618Z,6.57
2018-11-10T14:37:36.277Z,7.70
2018-11-10T14:42:40.510Z,10.90
2018-11-10T14:47:44.608Z,8.40
2018-11-10T14:52:48.248Z,12.17
2018-11-10T14:57:51.716Z,13.03
2018-11-10T15:02:55.262Z,11.50
2018-11-10T15:07:58.847Z,11.53
2018-11-10T15:13:02.337Z,9.80
2018-11-10T15:18:06.134Z,19.37
2018-11-10T15:23:09.668Z,12.17
2018-11-10T15:28:13.268Z,85.20
2018-11-10T15:33:16.917Z,12.27
2018-11-10T15:38:20.538Z,16.67
2018-11-10T15:43:24.082Z,14.97
2018-11-10T15:48:27.720Z,17.35
2018-11-10T15:53:31.366Z,18.50
2018-11-10T15:58:35.040Z,17.60
2018-11-10T16:03:38.662Z,20.00
2018-11-10T16:08:42.343Z,24.70
2018-11-10T16:13:45.865Z,20.60
2018-11-10T16:18:49.848Z,25.83
2018-11-10T16:23:53.407Z,27.87
2018-11-10T16:28:57.398Z,29.90
2018-11-10T16:34:00.927Z,29.47
2018-11-10T16:39:05.792Z,23.70
2018-11-10T16:44:09.315Z,27.90
2018-11-10T16:49:13.854Z,24.17
2018-11-10T16:54:17.458Z,30.47
2018-11-10T16:59:21.026Z,30.67
2018-11-10T17:04:24.589Z,24.83
2018-11-10T17:09:28.133Z,22.13
2018-11-10T17:14:31.764Z,21.40
2018-11-10T17:19:35.308Z,20.07
2018-11-10T17:24:39.593Z,17.67
2018-11-10T17:29:43.193Z,22.30
2018-11-10T17:34:46.680Z,19.07
2018-11-10T17:39:50.309Z,16.33
2018-11-10T17:44:53.868Z,14.43
2018-11-10T17:49:57.519Z,12.40
2018-11-10T17:55:01.225Z,9.33
2018-11-10T18:00:05.585Z,8.00
2018-11-10T18:05:10.925Z,9.37
2018-11-10T18:10:16.009Z,10.57
2018-11-10T18:15:19.752Z,8.97
2018-11-10T18:20:23.370Z,9.13
2018-11-10T18:25:27.322Z,8.33
2018-11-10T18:30:30.917Z,8.60
2018-11-10T18:35:34.455Z,8.93
2018-11-10T18:40:38.076Z,9.47
2018-11-10T18:45:41.727Z,7.97
2018-11-10T18:50:45.665Z,9.03
2018-11-10T18:55:49.262Z,8.23
2018-11-10T19:00:52.895Z,7.33
2018-11-10T19:05:56.540Z,9.17
2018-11-10T19:11:00.175Z,13.50
2018-11-10T19:16:07.467Z,8.63
2018-11-10T19:21:11.153Z,7.77
2018-11-10T19:26:14.868Z,7.83
2018-11-10T19:31:18.838Z,8.43
2018-11-10T19:36:22.491Z,7.33
2018-11-10T19:41:26.090Z,6.23
2018-11-10T19:46:30.466Z,6.00
2018-11-10T19:51:36.551Z,7.17
2018-11-10T19:56:39.992Z,4.93
2018-11-10T20:01:43.763Z,7.57
2018-11-10T20:06:47.433Z,5.63
2018-11-10T20:11:50.974Z,6.60
2018-11-10T20:16:54.662Z,5.03
2018-11-10T20:21:58.236Z,7.57
2018-11-10T20:27:01.841Z,10.23
2018-11-10T20:32:05.656Z,7.83
2018-11-10T20:37:09.981Z,8.73
2018-11-10T20:42:14.059Z,8.03
2018-11-10T20:47:18.392Z,9.13
2018-11-10T20:52:22.089Z,9.17
2018-11-10T20:57:25.768Z,7.83
2018-11-10T21:02:30.115Z,9.93
2018-11-10T21:07:33.742Z,10.10
2018-11-10T21:12:37.375Z,11.40
2018-11-10T21:17:40.933Z,17.90
2018-11-10T21:22:44.951Z,19.83
2018-11-10T21:27:48.744Z,19.70
2018-11-10T21:32:52.705Z,24.43
2018-11-10T21:37:56.348Z,24.70
2018-11-10T21:42:59.899Z,24.87
2018-11-10T21:48:03.373Z,26.07
2018-11-10T21:53:07.255Z,22.50
2018-11-10T21:58:11.367Z,21.87
2018-11-10T22:03:14.946Z,26.83
2018-11-10T22:08:22.512Z,26.80
2018-11-10T22:13:26.733Z,31.37
2018-11-10T22:18:31.141Z,24.37
2018-11-10T22:23:35.104Z,22.20
2018-11-10T22:28:38.591Z,19.67
2018-11-10T22:33:42.145Z,21.77
2018-11-10T22:38:45.824Z,25.27
2018-11-10T22:43:49.474Z,21.43
2018-11-10T22:48:53.004Z,25.10
2018-11-10T22:53:59.337Z,24.40
2018-11-10T22:59:02.861Z,23.67
2018-11-10T23:04:06.603Z,26.70
2018-11-10T23:09:10.488Z,25.13
2018-11-10T23:14:14.113Z,22.37
2018-11-10T23:19:17.708Z,16.77
2018-11-10T23:24:21.404Z,14.47
2018-11-10T23:29:24.862Z,16.63
2018-11-10T23:34:28.413Z,13.40
2018-11-10T23:39:31.874Z,12.77
2018-11-10T23:44:35.508Z,12.53
2018-11-10T23:49:39.949Z,14.13
2018-11-10T23:54:43.497Z,12.27
2018-11-10T23:59:47.035Z,12.67
